Progreso Lakes, Texas
Current Conditions -  °F | °C
As of 10:55 AM on Thursday 27 Nov 2014 (Local Time) from KT65 Reporting Station
Clear Clear  
Wind Chill: 72°   Ceiling: Unl
Heat Index: 72°   Visibility: 10mi
Dew Point: 52°   Wind: 6mph
Humidity: 49%   Direction: 180°S
Pressure: 30.44"   Gusts: NA
Location:  26.1701°N, 97.9943°W
Report Text: KT65 271655Z AUTO 18005KT 10SM CLR 22/11 A3044 RMK AO2 T02220110
Loading
Personal Weather Stations






























Interactive Weather Map New forecast layout! Learn more

10-Day Weather Forecast

Advertisements
Track Severe Weather on mobile